Time;durP1;ratioP1;P1;durP2;ratioP2;P2;SDS_P1;SDS_P2;PMS_P1;PMS_P2;Temp;Humidity;BMP_temperature;BMP_pressure;BME280_temperature;BME280_humidity;BME280_pressure;Samples;Min_cycle;Max_cycle;Signal;HPM_P1;HPM_P2
2022/05/05 00:00:54;;;;;;;9.90;6.75;;;7.50;99.90;;;;;;4958401;28;20061;-77
2022/05/05 00:03:23;;;;;;;12.40;7.00;;;7.60;99.90;;;;;;4954670;28;20054;-76
2022/05/05 00:05:48;;;;;;;12.10;7.53;;;7.50;99.90;;;;;;4968035;28;20149;-76
2022/05/05 00:08:14;;;;;;;11.35;6.75;;;7.50;99.90;;;;;;4951511;28;20141;-76
2022/05/05 00:16:09;;;;;;;13.27;7.60;;;7.40;99.90;;;;;;4967449;28;20066;-77
2022/05/05 00:18:35;;;;;;;9.20;6.20;;;7.40;99.90;;;;;;4985988;28;20049;-77
2022/05/05 00:21:01;;;;;;;9.95;6.55;;;7.40;99.90;;;;;;4958255;28;20050;-76
2022/05/05 00:23:27;;;;;;;9.63;6.72;;;7.40;99.90;;;;;;4966847;28;20104;-77
2022/05/05 00:25:53;;;;;;;10.93;6.32;;;7.40;99.90;;;;;;4973287;28;20102;-77
2022/05/05 00:28:19;;;;;;;12.10;7.38;;;7.40;99.90;;;;;;4955130;28;20081;-76
2022/05/05 00:30:44;;;;;;;11.68;6.65;;;7.30;99.90;;;;;;4941771;28;20054;-76
2022/05/05 00:33:10;;;;;;;12.38;6.80;;;7.30;99.90;;;;;;4951209;28;20050;-76
2022/05/05 00:35:36;;;;;;;9.57;6.63;;;7.30;99.90;;;;;;4967654;28;20552;-76
2022/05/05 00:38:03;;;;;;;12.35;7.10;;;7.30;99.90;;;;;;4951144;28;20046;-75
2022/05/05 00:40:29;;;;;;;10.73;7.07;;;7.30;99.90;;;;;;4958705;28;20055;-78
2022/05/05 00:43:02;;;;;;;12.32;7.00;;;7.30;99.90;;;;;;4967424;28;20101;-75
2022/05/05 00:45:28;;;;;;;12.73;6.63;;;7.30;99.90;;;;;;4940369;28;20077;-76
2022/05/05 00:48:04;;;;;;;12.05;6.57;;;7.30;99.90;;;;;;4973849;28;20082;-75
2022/05/05 00:50:35;;;;;;;11.00;6.30;;;7.40;99.90;;;;;;4967036;28;20134;-76
2022/05/05 00:53:02;;;;;;;11.30;6.32;;;7.40;99.90;;;;;;4967191;28;20468;-76
2022/05/05 00:55:31;;;;;;;10.73;6.43;;;7.40;99.90;;;;;;4966879;28;20051;-76
2022/05/05 00:57:57;;;;;;;9.48;5.38;;;7.40;99.90;;;;;;4982324;28;20120;-76
2022/05/05 01:00:23;;;;;;;12.38;6.32;;;7.40;99.90;;;;;;4953941;28;20050;-76
2022/05/05 01:02:49;;;;;;;11.80;6.22;;;7.30;99.90;;;;;;4970465;28;20038;-77
2022/05/05 01:05:16;;;;;;;9.98;5.85;;;7.40;99.90;;;;;;4964654;28;20827;-76
2022/05/05 01:07:42;;;;;;;10.02;6.03;;;7.30;99.90;;;;;;4978588;28;20046;-76
2022/05/05 01:10:09;;;;;;;9.93;6.43;;;7.30;99.90;;;;;;4939212;28;20553;-77
2022/05/05 01:12:34;;;;;;;10.77;6.75;;;7.30;99.90;;;;;;4951496;28;20085;-76
2022/05/05 01:15:01;;;;;;;12.93;6.70;;;7.30;99.90;;;;;;4957357;28;20612;-76
2022/05/05 01:17:27;;;;;;;13.20;7.03;;;7.30;99.90;;;;;;4974483;28;20101;-76
2022/05/05 01:19:52;;;;;;;10.48;6.25;;;7.30;99.90;;;;;;4961699;28;20462;-76
2022/05/05 01:22:18;;;;;;;10.60;6.53;;;7.30;99.90;;;;;;4979510;28;20042;-76
2022/05/05 01:30:14;;;;;;;15.70;7.28;;;7.20;99.90;;;;;;4985476;28;20054;-76
2022/05/05 01:32:40;;;;;;;11.60;6.93;;;7.20;99.90;;;;;;4952478;28;20049;-76
2022/05/05 01:35:07;;;;;;;11.32;7.22;;;7.20;99.90;;;;;;4966844;28;20156;-76
2022/05/05 01:37:32;;;;;;;12.57;7.03;;;7.20;99.90;;;;;;4953162;28;20125;-77
2022/05/05 01:39:58;;;;;;;9.32;7.00;;;7.20;99.90;;;;;;4983574;28;20576;-76
2022/05/05 01:42:24;;;;;;;10.25;7.30;;;7.20;99.90;;;;;;4985151;28;20555;-76
2022/05/05 01:44:52;;;;;;;13.48;7.95;;;7.20;99.90;;;;;;4967001;28;20042;-77
2022/05/05 01:47:18;;;;;;;14.32;7.70;;;7.20;99.90;;;;;;4937661;28;20050;-76
2022/05/05 01:49:46;;;;;;;12.23;8.50;;;7.10;99.90;;;;;;4949713;28;20046;-76
2022/05/05 01:52:11;;;;;;;12.93;9.00;;;7.10;99.90;;;;;;4934171;28;20062;-75
2022/05/05 01:54:38;;;;;;;13.48;8.93;;;7.10;99.90;;;;;;4933954;28;20062;-77
2022/05/05 01:57:05;;;;;;;13.25;9.55;;;7.10;99.90;;;;;;4965493;28;20133;-76
2022/05/05 01:59:31;;;;;;;16.80;10.13;;;7.00;99.90;;;;;;4949064;28;20047;-77
2022/05/05 02:01:58;;;;;;;16.17;10.35;;;7.00;99.90;;;;;;4964338;28;20061;-76
2022/05/05 02:04:23;;;;;;;11.93;8.50;;;7.00;99.90;;;;;;4953794;28;20034;-79
2022/05/05 02:06:49;;;;;;;10.75;9.30;;;6.90;99.90;;;;;;4952905;28;20047;-79
2022/05/05 02:09:15;;;;;;;14.40;9.20;;;6.90;99.90;;;;;;4954169;28;20422;-79
2022/05/05 02:11:41;;;;;;;13.48;9.38;;;6.90;99.90;;;;;;4949969;28;20054;-78
2022/05/05 02:14:08;;;;;;;12.50;8.98;;;6.90;99.90;;;;;;4978352;28;20057;-79
2022/05/05 02:16:33;;;;;;;13.73;9.60;;;6.90;99.90;;;;;;4941833;28;20053;-79
2022/05/05 02:18:59;;;;;;;13.07;9.63;;;6.90;99.90;;;;;;4984380;28;20038;-79
2022/05/05 02:21:25;;;;;;;14.93;11.57;;;6.90;99.90;;;;;;4980913;28;20077;-79
2022/05/05 02:23:54;;;;;;;11.73;9.48;;;6.90;99.90;;;;;;4949233;28;20510;-79
2022/05/05 02:26:20;;;;;;;11.90;9.07;;;6.90;99.90;;;;;;4933273;28;20055;-79
2022/05/05 02:28:49;;;;;;;12.85;9.00;;;6.90;99.90;;;;;;4966587;28;20043;-79
2022/05/05 02:31:15;;;;;;;13.40;9.40;;;7.00;99.90;;;;;;4971433;28;20069;-79
2022/05/05 02:33:42;;;;;;;15.20;10.98;;;6.90;99.90;;;;;;4949393;28;20042;-79
2022/05/05 02:38:52;;;;;;;12.80;10.77;;;6.90;99.90;;;;;;4951980;28;20127;-79
2022/05/05 02:41:18;;;;;;;17.13;10.25;;;6.80;99.90;;;;;;4965870;28;20059;-79
2022/05/05 02:43:44;;;;;;;13.82;10.40;;;6.80;99.90;;;;;;4948877;28;20561;-78
2022/05/05 02:46:10;;;;;;;14.68;10.68;;;6.70;99.90;;;;;;4951541;28;20057;-78
2022/05/05 02:48:37;;;;;;;14.25;10.13;;;6.70;99.90;;;;;;4968819;28;20054;-78
2022/05/05 02:51:03;;;;;;;13.50;11.85;;;6.70;99.90;;;;;;4985679;28;20651;-78
2022/05/05 02:56:16;;;;;;;16.25;12.40;;;6.70;99.90;;;;;;4971266;28;20101;-78
2022/05/05 02:58:42;;;;;;;15.38;13.10;;;6.60;99.90;;;;;;4969533;28;20148;-78
2022/05/05 03:01:08;;;;;;;20.60;14.05;;;6.60;99.90;;;;;;4967951;28;20078;-78
2022/05/05 03:03:35;;;;;;;19.30;12.18;;;6.50;99.90;;;;;;4952893;28;20046;-78
2022/05/05 03:06:00;;;;;;;15.13;12.63;;;6.60;99.90;;;;;;4958184;28;20407;-78
2022/05/05 03:08:26;;;;;;;14.90;11.98;;;6.50;99.90;;;;;;4948880;28;20047;-78
2022/05/05 03:10:53;;;;;;;14.38;12.50;;;6.50;99.90;;;;;;4964617;28;20572;-78
2022/05/05 03:13:19;;;;;;;14.95;12.00;;;6.40;99.90;;;;;;4933176;28;20050;-79
2022/05/05 03:15:45;;;;;;;14.55;11.38;;;6.50;99.90;;;;;;4949586;28;20113;-79
2022/05/05 03:18:11;;;;;;;15.52;12.00;;;6.50;99.90;;;;;;4965348;28;20056;-78
2022/05/05 03:20:37;;;;;;;18.10;15.30;;;6.50;99.90;;;;;;4951927;28;20565;-78
2022/05/05 03:23:03;;;;;;;19.77;13.75;;;6.50;99.90;;;;;;4983065;28;20053;-79
2022/05/05 03:25:29;;;;;;;14.85;12.73;;;6.50;99.90;;;;;;4967643;28;20066;-78
2022/05/05 03:27:55;;;;;;;15.93;12.52;;;6.40;99.90;;;;;;4983468;28;20058;-78
2022/05/05 03:30:24;;;;;;;16.58;13.73;;;6.50;99.90;;;;;;4951707;28;20081;-78
2022/05/05 03:32:49;;;;;;;17.00;13.88;;;6.50;99.90;;;;;;4968546;28;20046;-78
2022/05/05 03:35:15;;;;;;;16.15;14.13;;;6.50;99.90;;;;;;4952123;28;20058;-78
2022/05/05 03:37:41;;;;;;;15.45;12.75;;;6.50;99.90;;;;;;4951681;28;20058;-79
2022/05/05 03:40:07;;;;;;;14.43;12.50;;;6.50;99.90;;;;;;4951429;28;20051;-79
2022/05/05 03:42:33;;;;;;;14.05;12.57;;;6.50;99.90;;;;;;4983939;28;20484;-79
2022/05/05 03:44:59;;;;;;;17.98;14.63;;;6.50;99.90;;;;;;4982873;28;20074;-78
2022/05/05 03:47:24;;;;;;;18.67;13.63;;;6.50;99.90;;;;;;4941262;28;20088;-78
2022/05/05 03:49:50;;;;;;;17.80;12.52;;;6.50;99.90;;;;;;4961884;28;20046;-78
2022/05/05 03:52:16;;;;;;;17.00;13.15;;;6.50;99.90;;;;;;4967776;28;20104;-78
2022/05/05 03:54:42;;;;;;;13.90;12.18;;;6.50;99.90;;;;;;4945423;28;20047;-78
2022/05/05 03:57:08;;;;;;;13.55;12.10;;;6.40;99.90;;;;;;4964904;28;20386;-78
2022/05/05 03:59:34;;;;;;;16.10;12.15;;;6.50;99.90;;;;;;4986425;28;20050;-79
2022/05/05 04:02:00;;;;;;;18.90;13.52;;;6.50;99.90;;;;;;4965137;28;20052;-78
2022/05/05 04:04:26;;;;;;;15.07;11.77;;;6.50;99.90;;;;;;4976949;28;20404;-78
2022/05/05 04:06:51;;;;;;;12.55;10.85;;;6.40;99.90;;;;;;4964017;28;20074;-78
2022/05/05 04:09:17;;;;;;;16.75;11.98;;;6.50;99.90;;;;;;4962727;28;20038;-79
2022/05/05 04:11:43;;;;;;;16.10;11.93;;;6.50;99.90;;;;;;4969485;28;20053;-79
2022/05/05 04:14:09;;;;;;;18.65;12.63;;;6.40;99.90;;;;;;4961295;28;20049;-78
2022/05/05 04:16:35;;;;;;;16.88;11.63;;;6.40;99.90;;;;;;4961439;28;20039;-78
2022/05/05 04:19:03;;;;;;;13.52;12.13;;;6.40;99.90;;;;;;4979856;28;20042;-78
2022/05/05 04:21:29;;;;;;;15.77;13.15;;;6.40;99.90;;;;;;4978079;28;20428;-78
2022/05/05 04:23:55;;;;;;;13.48;11.50;;;6.50;99.90;;;;;;4947312;28;20132;-78
2022/05/05 04:26:22;;;;;;;15.77;12.85;;;6.40;99.90;;;;;;4933054;28;20126;-77
2022/05/05 04:28:49;;;;;;;16.85;13.15;;;6.50;99.90;;;;;;4965981;28;20050;-78
2022/05/05 04:31:17;;;;;;;20.40;14.18;;;6.50;99.90;;;;;;4951198;28;20106;-78
2022/05/05 04:33:43;;;;;;;17.45;12.52;;;6.60;99.90;;;;;;4985408;28;20053;-79
2022/05/05 04:36:11;;;;;;;18.58;12.68;;;6.70;99.90;;;;;;4966481;28;20062;-78
2022/05/05 04:38:37;;;;;;;16.30;13.10;;;6.70;99.90;;;;;;4985615;28;20563;-79
2022/05/05 04:41:03;;;;;;;16.33;12.38;;;6.90;99.90;;;;;;4962181;28;20055;-79
2022/05/05 04:43:30;;;;;;;14.75;13.25;;;6.80;99.90;;;;;;4985225;28;20050;-79
2022/05/05 04:45:56;;;;;;;16.13;12.50;;;6.90;99.90;;;;;;4961503;28;20059;-79
2022/05/05 04:48:21;;;;;;;17.70;13.32;;;6.90;99.90;;;;;;4955836;28;20058;-75
2022/05/05 04:50:47;;;;;;;14.68;12.60;;;6.90;99.90;;;;;;4969395;28;20086;-76
2022/05/05 04:53:13;;;;;;;17.85;13.77;;;7.00;99.90;;;;;;4967047;28;20085;-76
2022/05/05 04:55:39;;;;;;;16.30;13.25;;;7.00;99.90;;;;;;4985204;28;20053;-76
2022/05/05 04:58:04;;;;;;;15.63;12.55;;;7.10;99.90;;;;;;4960324;28;20085;-76
2022/05/05 05:00:31;;;;;;;16.08;13.63;;;7.10;99.90;;;;;;4945770;28;20050;-76
2022/05/05 05:02:57;;;;;;;18.08;14.00;;;7.20;99.90;;;;;;4966169;28;20054;-77
2022/05/05 05:05:23;;;;;;;15.85;12.88;;;7.20;99.90;;;;;;4984834;28;20446;-76
2022/05/05 05:07:49;;;;;;;14.45;12.77;;;7.30;99.90;;;;;;4946986;28;20193;-76
2022/05/05 05:10:15;;;;;;;13.45;11.95;;;7.30;99.90;;;;;;4958812;28;20039;-77
2022/05/05 05:12:41;;;;;;;16.80;13.70;;;7.30;99.90;;;;;;4952921;28;20486;-76
2022/05/05 05:15:07;;;;;;;15.90;13.55;;;7.40;99.90;;;;;;4979280;28;20038;-77
2022/05/05 05:17:33;;;;;;;18.13;14.90;;;7.40;99.90;;;;;;4963883;28;20580;-76
2022/05/05 05:19:59;;;;;;;16.65;13.77;;;7.50;99.90;;;;;;4959809;28;20042;-77
2022/05/05 05:22:25;;;;;;;16.25;13.50;;;7.50;99.90;;;;;;4960244;28;20046;-77
2022/05/05 05:24:51;;;;;;;18.98;13.30;;;7.60;99.90;;;;;;4952007;28;20096;-75
2022/05/05 05:27:17;;;;;;;15.32;13.00;;;7.60;99.90;;;;;;4985299;28;20123;-77
2022/05/05 05:29:43;;;;;;;17.05;14.18;;;7.70;99.90;;;;;;4984469;28;20043;-76
2022/05/05 05:32:09;;;;;;;16.55;13.90;;;7.70;99.90;;;;;;4950132;28;20061;-77
2022/05/05 05:34:35;;;;;;;17.27;14.40;;;7.70;99.90;;;;;;4952150;28;20038;-76
2022/05/05 05:37:03;;;;;;;14.85;12.93;;;7.70;99.90;;;;;;4960424;28;20197;-77
2022/05/05 05:39:29;;;;;;;18.85;14.13;;;7.80;99.90;;;;;;4964495;28;20078;-77
2022/05/05 05:41:55;;;;;;;16.25;14.45;;;7.90;99.90;;;;;;4947249;28;20112;-77
2022/05/05 05:44:21;;;;;;;17.88;14.00;;;7.90;99.90;;;;;;4967957;28;20856;-77
2022/05/05 05:46:47;;;;;;;19.40;13.18;;;8.00;99.90;;;;;;4941375;28;20046;-77
2022/05/05 05:49:13;;;;;;;17.50;14.43;;;8.10;99.90;;;;;;4968375;28;20046;-76
2022/05/05 05:51:38;;;;;;;18.10;13.30;;;8.20;99.90;;;;;;4968361;28;20046;-77
2022/05/05 05:54:04;;;;;;;19.92;13.85;;;8.20;99.90;;;;;;4968617;28;20390;-77
2022/05/05 05:56:31;;;;;;;18.88;14.30;;;8.30;99.90;;;;;;4965341;28;20102;-77
2022/05/05 05:58:57;;;;;;;15.45;13.77;;;8.40;99.90;;;;;;4967189;28;20418;-77
2022/05/05 06:03:53;;;;;;;18.65;12.40;;;8.50;99.90;;;;;;4963425;28;20055;-77
2022/05/05 06:04:09;;;;;;;16.48;14.00;;;8.60;99.90;;;;;;4982631;28;20048;-77
2022/05/05 06:06:35;;;;;;;16.80;13.35;;;8.60;99.90;;;;;;4968173;28;20050;-77
2022/05/05 06:09:01;;;;;;;17.98;13.25;;;8.70;99.90;;;;;;4959820;28;20054;-77
2022/05/05 06:11:26;;;;;;;17.15;12.60;;;8.70;99.90;;;;;;4968206;28;20089;-77
2022/05/05 06:13:53;;;;;;;18.60;13.57;;;8.70;99.90;;;;;;4959836;28;20066;-77
2022/05/05 06:16:18;;;;;;;16.13;13.35;;;8.80;99.90;;;;;;4944490;28;20050;-77
2022/05/05 06:18:44;;;;;;;17.92;13.63;;;8.80;99.90;;;;;;4941218;28;20310;-77
2022/05/05 06:21:10;;;;;;;20.40;13.35;;;8.90;99.90;;;;;;4950065;28;20269;-77
2022/05/05 06:23:37;;;;;;;15.10;13.35;;;8.90;99.90;;;;;;4971397;28;20153;-77
2022/05/05 06:26:05;;;;;;;15.13;12.88;;;9.00;99.90;;;;;;4967190;28;20116;-77
2022/05/05 06:28:33;;;;;;;16.15;12.85;;;9.00;99.90;;;;;;4941386;28;20047;-77
2022/05/05 06:30:59;;;;;;;16.13;12.77;;;9.20;99.90;;;;;;4963204;28;20053;-77
2022/05/05 06:33:25;;;;;;;17.13;13.52;;;9.30;99.90;;;;;;4977282;28;20053;-77
2022/05/05 06:35:51;;;;;;;15.10;12.05;;;9.40;99.90;;;;;;4983080;28;20101;-78
2022/05/05 06:38:17;;;;;;;19.58;14.02;;;9.50;99.90;;;;;;4967448;28;20444;-77
2022/05/05 06:40:44;;;;;;;17.17;12.88;;;9.60;99.90;;;;;;4967863;28;20413;-78
2022/05/05 06:43:10;;;;;;;18.23;13.00;;;9.70;99.90;;;;;;4966687;28;20492;-77
2022/05/05 06:45:36;;;;;;;16.73;11.88;;;9.80;99.90;;;;;;4967052;28;20045;-78
2022/05/05 06:48:02;;;;;;;16.35;11.82;;;9.90;99.90;;;;;;4961908;28;20042;-78
2022/05/05 06:50:28;;;;;;;15.88;11.68;;;10.10;99.90;;;;;;4958569;28;20090;-75
2022/05/05 06:52:54;;;;;;;15.68;11.82;;;10.20;99.90;;;;;;4939497;28;20042;-76
2022/05/05 06:55:23;;;;;;;18.67;12.43;;;10.40;99.90;;;;;;4932137;28;20049;-75
2022/05/05 06:57:49;;;;;;;18.27;11.57;;;10.50;99.90;;;;;;4955742;28;20474;-76
2022/05/05 07:00:15;;;;;;;19.02;12.02;;;10.70;99.90;;;;;;4957084;28;20394;-76
2022/05/05 07:02:41;;;;;;;16.00;11.90;;;10.80;99.90;;;;;;4967227;28;20671;-76
2022/05/05 07:05:27;;;;;;;14.35;11.10;;;10.90;99.90;;;;;;4968053;28;20038;-76
2022/05/05 07:07:53;;;;;;;17.60;11.30;;;11.00;99.90;;;;;;4951917;28;20066;-77
2022/05/05 07:13:05;;;;;;;12.68;10.30;;;11.30;99.90;;;;;;4977957;28;20066;-76
2022/05/05 07:15:31;;;;;;;13.23;10.50;;;11.40;99.90;;;;;;4983107;28;20481;-76
2022/05/05 07:17:57;;;;;;;14.70;11.65;;;11.60;99.90;;;;;;4950089;28;20043;-77
2022/05/05 07:20:23;;;;;;;15.35;9.35;;;11.80;99.90;;;;;;4973360;28;20054;-76
2022/05/05 07:22:52;;;;;;;13.02;9.85;;;11.90;99.90;;;;;;4972001;28;20043;-77
2022/05/05 07:25:19;;;;;;;14.32;8.70;;;12.00;99.90;;;;;;4956033;28;20046;-77
2022/05/05 07:27:45;;;;;;;13.65;9.60;;;12.10;99.90;;;;;;4958775;28;20125;-76
2022/05/05 07:30:11;;;;;;;18.05;8.73;;;12.20;99.90;;;;;;4976790;28;20584;-76
2022/05/05 07:32:37;;;;;;;15.30;8.77;;;12.30;99.90;;;;;;4980636;28;20077;-76
2022/05/05 07:35:04;;;;;;;14.18;8.07;;;12.50;99.90;;;;;;4973268;28;20050;-72
2022/05/05 07:37:29;;;;;;;12.27;7.78;;;12.60;99.90;;;;;;4959254;28;20068;-75
2022/05/05 07:39:55;;;;;;;10.20;6.63;;;12.60;99.90;;;;;;4958933;28;20059;-72
2022/05/05 07:42:21;;;;;;;13.95;7.03;;;12.80;99.90;;;;;;4982422;28;20053;-72
2022/05/05 07:44:47;;;;;;;15.15;7.95;;;12.90;99.90;;;;;;4986900;28;20493;-72
2022/05/05 07:47:12;;;;;;;16.48;7.35;;;12.90;99.90;;;;;;4980536;28;20051;-72
2022/05/05 07:49:38;;;;;;;10.68;7.45;;;13.00;99.90;;;;;;4981509;28;20042;-72
2022/05/05 07:52:04;;;;;;;12.20;6.80;;;13.10;99.90;;;;;;4980948;28;20077;-73
2022/05/05 07:54:42;;;;;;;11.93;6.53;;;13.20;99.90;;;;;;4981805;28;20392;-74
2022/05/05 07:57:11;;;;;;;11.55;6.07;;;13.30;99.90;;;;;;4970509;28;20057;-72
2022/05/05 07:59:38;;;;;;;14.63;7.32;;;13.40;99.90;;;;;;4985121;28;20050;-72
2022/05/05 08:02:08;;;;;;;12.18;6.20;;;13.50;99.90;;;;;;4983044;28;20465;-73
2022/05/05 08:04:34;;;;;;;;;;;13.60;99.90;;;;;;4970274;28;20042;-73
2022/05/05 08:07:00;;;;;;;9.30;5.43;;;13.80;99.90;;;;;;4969979;28;20288;-73
2022/05/05 08:09:26;;;;;;;10.15;6.28;;;13.90;99.90;;;;;;4949615;28;20130;-73
2022/05/05 08:11:52;;;;;;;13.38;6.10;;;13.90;99.90;;;;;;4967388;28;20065;-75
2022/05/05 08:14:18;;;;;;;7.35;5.00;;;14.00;99.90;;;;;;4970148;28;20046;-72
2022/05/05 08:16:43;;;;;;;10.13;5.28;;;14.00;99.90;;;;;;4970269;28;20547;-73
2022/05/05 08:19:09;;;;;;;10.20;5.95;;;14.10;99.90;;;;;;4969169;28;20496;-73
2022/05/05 08:21:35;;;;;;;8.07;5.05;;;14.20;99.90;;;;;;4957321;28;20145;-73
2022/05/05 08:29:33;;;;;;;9.90;5.97;;;14.20;99.90;;;;;;4970953;28;20061;-73
2022/05/05 08:32:00;;;;;;;8.82;5.90;;;14.30;99.50;;;;;;4969655;28;20409;-73
2022/05/05 08:34:25;;;;;;;10.30;6.13;;;14.40;98.70;;;;;;4985751;28;20342;-72
2022/05/05 08:36:51;;;;;;;10.15;5.88;;;14.50;99.20;;;;;;4951403;28;20074;-72
2022/05/05 08:39:17;;;;;;;12.38;6.20;;;14.60;99.10;;;;;;4969308;28;20120;-73
2022/05/05 08:41:43;;;;;;;14.98;6.35;;;14.70;98.50;;;;;;4953426;28;20129;-73
2022/05/05 08:44:09;;;;;;;9.60;5.25;;;14.80;99.10;;;;;;4953158;28;20073;-73
2022/05/05 08:46:36;;;;;;;8.43;5.18;;;14.80;98.80;;;;;;4945799;28;20122;-73
2022/05/05 08:49:05;;;;;;;9.73;5.90;;;14.80;99.00;;;;;;4966257;28;20109;-71
2022/05/05 08:51:41;;;;;;;10.90;6.22;;;14.90;99.10;;;;;;4966463;28;20114;-72
2022/05/05 08:54:10;;;;;;;11.93;6.68;;;15.00;99.20;;;;;;4973437;28;20042;-73
2022/05/05 08:56:35;;;;;;;9.02;6.38;;;14.90;97.20;;;;;;4974267;28;20046;-73
2022/05/05 08:59:03;;;;;;;9.75;6.18;;;14.90;96.40;;;;;;4984648;28;20057;-73
2022/05/05 09:01:41;;;;;;;9.88;5.72;;;15.00;98.70;;;;;;4975431;28;20051;-73
2022/05/05 09:04:07;;;;;;;10.40;5.95;;;15.20;99.90;;;;;;4948412;28;20110;-73
2022/05/05 09:06:46;;;;;;;8.70;6.10;;;15.40;99.30;;;;;;4942976;28;20687;-73
2022/05/05 09:09:33;;;;;;;11.10;6.25;;;15.50;97.30;;;;;;4966178;28;20129;-73
2022/05/05 09:12:19;;;;;;;9.23;6.03;;;15.50;94.30;;;;;;4984221;28;20076;-73
2022/05/05 09:14:48;;;;;;;8.90;5.88;;;15.50;97.50;;;;;;4960677;28;20050;-73
2022/05/05 09:17:21;;;;;;;10.45;6.93;;;15.70;97.30;;;;;;4968366;28;20497;-73
2022/05/05 09:19:52;;;;;;;10.88;6.75;;;16.00;96.00;;;;;;4978953;28;20509;-74
2022/05/05 09:22:21;;;;;;;11.80;6.70;;;16.10;94.30;;;;;;4950229;28;20267;-75
2022/05/05 09:24:49;;;;;;;9.05;5.97;;;16.30;94.10;;;;;;4949893;28;20059;-74
2022/05/05 09:27:25;;;;;;;12.73;7.63;;;16.40;93.50;;;;;;4956205;28;20058;-74
2022/05/05 09:30:05;;;;;;;11.18;6.45;;;16.50;92.70;;;;;;4959834;28;20041;-74
2022/05/05 09:32:38;;;;;;;10.25;6.13;;;16.50;92.00;;;;;;4968526;28;20046;-74
2022/05/05 09:35:18;;;;;;;13.48;7.25;;;16.50;93.30;;;;;;4985290;28;20112;-74
2022/05/05 09:37:48;;;;;;;10.23;7.28;;;16.60;91.50;;;;;;4984343;28;20050;-74
2022/05/05 09:40:20;;;;;;;9.38;6.65;;;16.60;94.50;;;;;;4983955;28;20535;-74
2022/05/05 09:42:53;;;;;;;10.70;6.90;;;16.80;94.60;;;;;;4963449;28;20396;-72
2022/05/05 09:45:39;;;;;;;9.75;6.28;;;16.90;93.70;;;;;;4967836;28;20088;-73
2022/05/05 09:48:06;;;;;;;10.60;7.15;;;17.00;91.90;;;;;;4976865;28;20141;-73
2022/05/05 09:50:34;;;;;;;13.77;7.65;;;17.10;90.80;;;;;;4968298;28;20050;-74
2022/05/05 09:58:57;;;;;;;11.52;7.00;;;17.20;87.30;;;;;;4894611;29;20110;-73
2022/05/05 10:01:31;;;;;;;12.75;7.35;;;17.20;90.20;;;;;;4937828;28;20509;-72
2022/05/05 10:04:02;;;;;;;10.13;6.55;;;17.30;91.50;;;;;;4967553;28;20078;-73
2022/05/05 10:06:36;;;;;;;11.60;7.32;;;17.50;92.10;;;;;;4978843;28;20042;-73
2022/05/05 10:09:16;;;;;;;10.52;7.10;;;17.60;92.30;;;;;;4976427;28;20061;-73
2022/05/05 10:11:42;;;;;;;9.68;6.90;;;17.80;90.30;;;;;;4957278;28;20146;-74
2022/05/05 10:14:10;;;;;;;9.25;6.97;;;17.80;86.30;;;;;;4960241;28;20581;-73
2022/05/05 10:16:38;;;;;;;9.15;7.00;;;17.70;86.10;;;;;;4983590;28;20054;-74
2022/05/05 10:19:04;;;;;;;10.52;7.50;;;17.80;88.20;;;;;;4943682;28;20233;-74
2022/05/05 10:21:44;;;;;;;10.18;7.28;;;17.80;87.60;;;;;;4957294;28;20074;-74
2022/05/05 10:24:30;;;;;;;9.60;6.72;;;17.90;85.40;;;;;;4973688;28;20104;-73
2022/05/05 10:27:03;;;;;;;11.50;7.25;;;17.90;75.40;;;;;;4951688;28;20145;-74
2022/05/05 10:29:39;;;;;;;12.10;7.10;;;17.80;83.90;;;;;;4966561;28;20452;-73
2022/05/05 10:32:09;;;;;;;12.90;6.80;;;17.80;83.40;;;;;;4981448;28;20061;-74
2022/05/05 10:34:39;;;;;;;13.77;6.88;;;17.80;84.40;;;;;;4945036;28;20104;-74
2022/05/05 10:37:08;;;;;;;10.32;7.53;;;17.80;83.60;;;;;;4967744;28;20076;-73
2022/05/05 10:39:58;;;;;;;13.25;7.93;;;17.70;78.10;;;;;;4983773;28;20380;-73
2022/05/05 10:42:30;;;;;;;8.82;6.60;;;17.60;77.30;;;;;;4945223;28;20066;-74
2022/05/05 10:45:20;;;;;;;8.18;6.22;;;17.60;84.80;;;;;;4972377;28;20057;-73
2022/05/05 10:47:54;;;;;;;9.13;6.82;;;17.70;81.50;;;;;;4968727;28;20505;-74
2022/05/05 10:50:59;;;;;;;8.32;5.95;;;17.80;76.90;;;;;;4960481;28;20054;-74
2022/05/05 10:53:40;;;;;;;8.07;5.72;;;17.80;79.30;;;;;;4961882;28;20062;-74
2022/05/05 10:56:26;;;;;;;9.18;6.55;;;18.00;83.20;;;;;;4970082;28;20089;-73
2022/05/05 10:58:58;;;;;;;11.02;7.80;;;18.10;80.60;;;;;;4977366;28;20050;-74
2022/05/05 11:01:26;;;;;;;10.32;7.70;;;18.20;79.60;;;;;;4954748;28;20058;-75
2022/05/05 11:04:05;;;;;;;10.13;7.25;;;18.30;77.70;;;;;;4976549;28;20406;-75
2022/05/05 11:06:32;;;;;;;10.60;6.97;;;18.30;80.00;;;;;;4957593;28;20057;-75
2022/05/05 11:08:58;;;;;;;7.93;6.20;;;18.40;77.40;;;;;;4964609;28;20710;-75
2022/05/05 11:11:40;;;;;;;9.63;6.47;;;18.40;75.20;;;;;;4960253;28;20143;-75
2022/05/05 11:23:08;;;;;;;10.80;6.88;;;18.70;75.40;;;;;;4970670;28;20050;-73
2022/05/05 11:25:34;;;;;;;10.27;7.47;;;18.90;74.80;;;;;;4966663;28;20065;-74
2022/05/05 11:27:59;;;;;;;9.98;6.55;;;19.00;70.70;;;;;;4936335;28;20073;-74
2022/05/05 11:30:26;;;;;;;8.65;6.32;;;19.00;70.40;;;;;;4947451;28;20450;-74
2022/05/05 11:32:52;;;;;;;9.88;7.22;;;19.00;68.80;;;;;;4982875;28;20121;-74
2022/05/05 11:35:24;;;;;;;9.60;6.15;;;19.00;70.40;;;;;;4987147;28;20038;-74
2022/05/05 11:37:51;;;;;;;9.25;6.13;;;19.20;68.80;;;;;;4955171;28;20046;-74
2022/05/05 11:40:17;;;;;;;9.00;6.13;;;19.30;71.10;;;;;;4946878;28;20136;-74
2022/05/05 11:45:33;;;;;;;8.43;5.30;;;19.60;70.00;;;;;;4980427;28;20603;-73
2022/05/05 11:47:58;;;;;;;8.35;6.30;;;19.70;69.10;;;;;;4977648;28;20039;-73
2022/05/05 11:50:24;;;;;;;14.25;7.55;;;19.80;66.90;;;;;;4976396;28;20437;-73
2022/05/05 11:52:53;;;;;;;12.27;6.93;;;19.80;65.60;;;;;;4943574;28;20046;-73
2022/05/05 11:55:22;;;;;;;10.10;6.50;;;19.90;63.70;;;;;;4946344;28;20405;-73
2022/05/05 11:57:50;;;;;;;8.57;5.65;;;20.00;63.60;;;;;;4942828;28;20045;-73
2022/05/05 12:03:04;;;;;;;10.77;6.40;;;20.20;64.00;;;;;;4977693;28;20093;-75
2022/05/05 12:05:30;;;;;;;8.80;6.03;;;20.40;63.00;;;;;;4974755;28;20572;-73
2022/05/05 12:07:56;;;;;;;11.30;5.68;;;20.50;64.10;;;;;;4959990;28;20145;-73
2022/05/05 12:10:32;;;;;;;8.38;5.50;;;20.60;62.10;;;;;;4953445;28;21226;-73
2022/05/05 12:13:03;;;;;;;8.30;5.05;;;20.60;60.80;;;;;;4962618;28;20113;-74
2022/05/05 12:15:29;;;;;;;9.32;5.82;;;20.50;60.00;;;;;;4947589;28;20074;-73
2022/05/05 12:17:58;;;;;;;9.18;6.68;;;20.30;60.60;;;;;;4977145;28;20106;-73
2022/05/05 12:20:24;;;;;;;9.73;7.18;;;20.20;62.30;;;;;;4970421;28;20039;-73
2022/05/05 12:22:58;;;;;;;8.82;6.20;;;20.20;62.40;;;;;;4957239;28;20049;-73
2022/05/05 12:25:25;;;;;;;14.63;6.90;;;20.20;65.20;;;;;;4970787;28;20308;-73
2022/05/05 12:28:03;;;;;;;10.57;6.35;;;20.20;65.50;;;;;;4968935;28;20058;-75
2022/05/05 12:30:30;;;;;;;9.63;6.93;;;20.50;63.30;;;;;;4982992;28;20061;-74
2022/05/05 12:32:56;;;;;;;10.70;6.47;;;20.60;62.20;;;;;;4983473;28;20516;-75
2022/05/05 12:35:39;;;;;;;9.52;6.95;;;20.30;58.90;;;;;;4969656;28;20148;-75
2022/05/05 12:38:07;;;;;;;11.80;7.82;;;20.00;60.50;;;;;;4984510;28;20038;-74
2022/05/05 12:40:33;;;;;;;10.88;6.90;;;19.80;61.20;;;;;;4977203;28;20686;-74
2022/05/05 12:43:00;;;;;;;10.25;6.72;;;19.70;62.30;;;;;;4962730;28;20126;-75
2022/05/05 12:45:32;;;;;;;10.93;6.70;;;19.80;64.90;;;;;;4956321;28;20066;-75
2022/05/05 12:48:00;;;;;;;12.20;7.40;;;20.00;65.80;;;;;;4976492;28;20080;-74
2022/05/05 12:50:40;;;;;;;9.90;7.80;;;20.20;65.40;;;;;;4972891;28;20042;-75
2022/05/05 13:01:30;;;;;;;8.13;5.70;;;20.20;60.40;;;;;;4984072;28;20069;-75
2022/05/05 13:03:58;;;;;;;8.82;6.32;;;20.20;60.90;;;;;;4978559;28;20051;-76
2022/05/05 13:06:25;;;;;;;11.23;7.20;;;20.30;59.50;;;;;;4965494;28;20054;-75
2022/05/05 13:08:55;;;;;;;9.05;5.72;;;20.20;60.20;;;;;;4947796;28;20401;-84
2022/05/05 13:11:21;;;;;;;11.68;6.30;;;20.20;60.10;;;;;;4982867;28;20054;-84
2022/05/05 13:13:49;;;;;;;7.65;5.75;;;20.30;62.20;;;;;;4984679;28;20409;-84
2022/05/05 13:16:15;;;;;;;8.57;6.00;;;20.30;61.40;;;;;;4982924;28;20455;-85
2022/05/05 13:18:41;;;;;;;6.43;5.10;;;20.40;60.80;;;;;;4962215;28;20046;-84
2022/05/05 13:21:08;;;;;;;7.40;5.40;;;20.30;61.80;;;;;;4976892;28;20054;-84
2022/05/05 13:23:34;;;;;;;8.48;5.47;;;20.30;63.30;;;;;;4961619;28;20537;-82
2022/05/05 13:26:00;;;;;;;8.95;5.55;;;20.20;61.50;;;;;;4963459;28;20066;-83
2022/05/05 13:28:26;;;;;;;10.25;6.10;;;20.20;60.00;;;;;;4982940;28;20544;-83
2022/05/05 13:30:52;;;;;;;8.20;5.32;;;20.00;58.30;;;;;;4968489;28;20138;-83
2022/05/05 13:33:18;;;;;;;9.10;5.13;;;19.90;59.10;;;;;;4966316;28;20407;-84
2022/05/05 13:35:44;;;;;;;9.20;5.93;;;19.80;61.20;;;;;;4984386;28;20125;-82
2022/05/05 13:38:10;;;;;;;7.35;5.30;;;19.90;61.70;;;;;;4979119;28;20164;-84